sensor_id;sensor_type;location;lat;lon;timestamp;P1;durP1;ratioP1;P2;durP2;ratioP2
16101;SDS011;56411;52.964;10.540;2023-11-19T00:00:06;10.17;;;3.80;;
16101;SDS011;56411;52.964;10.540;2023-11-19T00:02:36;9.73;;;3.93;;
16101;SDS011;56411;52.964;10.540;2023-11-19T00:05:04;8.37;;;3.63;;
16101;SDS011;56411;52.964;10.540;2023-11-19T00:07:35;10.77;;;4.70;;
16101;SDS011;56411;52.964;10.540;2023-11-19T00:10:06;9.43;;;3.80;;
16101;SDS011;56411;52.964;10.540;2023-11-19T00:12:36;8.57;;;3.80;;
16101;SDS011;56411;52.964;10.540;2023-11-19T00:15:04;7.30;;;3.27;;
16101;SDS011;56411;52.964;10.540;2023-11-19T00:17:36;7.80;;;3.50;;
16101;SDS011;56411;52.964;10.540;2023-11-19T00:20:04;7.97;;;3.40;;
16101;SDS011;56411;52.964;10.540;2023-11-19T00:22:32;7.43;;;3.67;;
16101;SDS011;56411;52.964;10.540;2023-11-19T00:25:01;9.47;;;3.70;;
16101;SDS011;56411;52.964;10.540;2023-11-19T00:27:28;8.80;;;3.60;;
16101;SDS011;56411;52.964;10.540;2023-11-19T00:29:55;6.73;;;3.13;;
16101;SDS011;56411;52.964;10.540;2023-11-19T00:32:23;7.67;;;3.30;;
16101;SDS011;56411;52.964;10.540;2023-11-19T00:34:50;8.23;;;3.43;;
16101;SDS011;56411;52.964;10.540;2023-11-19T00:37:17;8.00;;;3.67;;
16101;SDS011;56411;52.964;10.540;2023-11-19T00:39:44;6.20;;;3.17;;
16101;SDS011;56411;52.964;10.540;2023-11-19T00:42:13;7.63;;;3.20;;
16101;SDS011;56411;52.964;10.540;2023-11-19T00:44:40;8.50;;;3.50;;
16101;SDS011;56411;52.964;10.540;2023-11-19T00:47:07;7.53;;;3.50;;
16101;SDS011;56411;52.964;10.540;2023-11-19T00:49:34;7.97;;;3.80;;
16101;SDS011;56411;52.964;10.540;2023-11-19T00:52:01;8.00;;;3.67;;
16101;SDS011;56411;52.964;10.540;2023-11-19T00:54:29;8.43;;;3.77;;
16101;SDS011;56411;52.964;10.540;2023-11-19T00:56:56;7.00;;;3.30;;
16101;SDS011;56411;52.964;10.540;2023-11-19T00:59:24;6.87;;;3.13;;
16101;SDS011;56411;52.964;10.540;2023-11-19T01:01:53;7.70;;;3.17;;
16101;SDS011;56411;52.964;10.540;2023-11-19T01:04:21;6.40;;;3.07;;
16101;SDS011;56411;52.964;10.540;2023-11-19T01:06:49;5.90;;;2.97;;
16101;SDS011;56411;52.964;10.540;2023-11-19T01:09:16;7.60;;;3.10;;
16101;SDS011;56411;52.964;10.540;2023-11-19T01:11:43;7.10;;;3.40;;
16101;SDS011;56411;52.964;10.540;2023-11-19T01:14:10;6.23;;;3.07;;
16101;SDS011;56411;52.964;10.540;2023-11-19T01:16:38;6.57;;;3.23;;
16101;SDS011;56411;52.964;10.540;2023-11-19T01:19:06;6.13;;;3.10;;
16101;SDS011;56411;52.964;10.540;2023-11-19T01:21:33;6.87;;;3.63;;
16101;SDS011;56411;52.964;10.540;2023-11-19T01:24:00;6.10;;;3.07;;
16101;SDS011;56411;52.964;10.540;2023-11-19T01:26:29;7.47;;;3.20;;
16101;SDS011;56411;52.964;10.540;2023-11-19T01:28:56;7.33;;;3.30;;
16101;SDS011;56411;52.964;10.540;2023-11-19T01:31:23;6.33;;;3.13;;
16101;SDS011;56411;52.964;10.540;2023-11-19T01:33:51;5.53;;;2.80;;
16101;SDS011;56411;52.964;10.540;2023-11-19T01:36:18;6.43;;;3.23;;
16101;SDS011;56411;52.964;10.540;2023-11-19T01:38:45;6.47;;;3.00;;
16101;SDS011;56411;52.964;10.540;2023-11-19T01:41:13;5.40;;;2.90;;
16101;SDS011;56411;52.964;10.540;2023-11-19T01:43:40;5.17;;;2.60;;
16101;SDS011;56411;52.964;10.540;2023-11-19T01:46:07;5.83;;;2.90;;
16101;SDS011;56411;52.964;10.540;2023-11-19T01:48:36;6.10;;;2.90;;
16101;SDS011;56411;52.964;10.540;2023-11-19T01:51:08;4.80;;;2.73;;
16101;SDS011;56411;52.964;10.540;2023-11-19T01:53:36;6.07;;;3.10;;
16101;SDS011;56411;52.964;10.540;2023-11-19T01:56:04;5.13;;;2.73;;
16101;SDS011;56411;52.964;10.540;2023-11-19T01:58:34;4.30;;;2.63;;
16101;SDS011;56411;52.964;10.540;2023-11-19T02:01:01;5.27;;;3.00;;
16101;SDS011;56411;52.964;10.540;2023-11-19T02:03:29;5.60;;;3.10;;
16101;SDS011;56411;52.964;10.540;2023-11-19T02:05:57;7.90;;;3.43;;
16101;SDS011;56411;52.964;10.540;2023-11-19T02:08:26;6.53;;;3.00;;
16101;SDS011;56411;52.964;10.540;2023-11-19T02:10:54;5.07;;;2.90;;
16101;SDS011;56411;52.964;10.540;2023-11-19T02:13:22;5.90;;;2.87;;
16101;SDS011;56411;52.964;10.540;2023-11-19T02:15:50;6.53;;;2.80;;
16101;SDS011;56411;52.964;10.540;2023-11-19T02:18:17;5.37;;;2.80;;
16101;SDS011;56411;52.964;10.540;2023-11-19T02:20:45;5.83;;;3.07;;
16101;SDS011;56411;52.964;10.540;2023-11-19T02:23:12;5.23;;;2.83;;
16101;SDS011;56411;52.964;10.540;2023-11-19T02:25:41;5.73;;;3.00;;
16101;SDS011;56411;52.964;10.540;2023-11-19T02:28:16;6.17;;;2.90;;
16101;SDS011;56411;52.964;10.540;2023-11-19T02:30:43;4.13;;;2.53;;
16101;SDS011;56411;52.964;10.540;2023-11-19T02:33:10;6.07;;;2.83;;
16101;SDS011;56411;52.964;10.540;2023-11-19T02:35:38;6.07;;;2.70;;
16101;SDS011;56411;52.964;10.540;2023-11-19T02:38:05;5.63;;;2.47;;
16101;SDS011;56411;52.964;10.540;2023-11-19T02:40:33;6.97;;;2.80;;
16101;SDS011;56411;52.964;10.540;2023-11-19T02:43:01;6.23;;;2.80;;
16101;SDS011;56411;52.964;10.540;2023-11-19T02:45:31;6.37;;;2.90;;
16101;SDS011;56411;52.964;10.540;2023-11-19T02:47:58;5.87;;;3.00;;
16101;SDS011;56411;52.964;10.540;2023-11-19T02:50:27;5.87;;;2.80;;
16101;SDS011;56411;52.964;10.540;2023-11-19T02:52:55;6.20;;;2.80;;
16101;SDS011;56411;52.964;10.540;2023-11-19T02:55:22;6.43;;;2.77;;
16101;SDS011;56411;52.964;10.540;2023-11-19T02:57:50;6.80;;;3.00;;
16101;SDS011;56411;52.964;10.540;2023-11-19T03:00:18;4.50;;;2.43;;
16101;SDS011;56411;52.964;10.540;2023-11-19T03:02:54;5.53;;;2.73;;
16101;SDS011;56411;52.964;10.540;2023-11-19T03:05:25;5.03;;;2.80;;
16101;SDS011;56411;52.964;10.540;2023-11-19T03:07:55;7.43;;;2.70;;
16101;SDS011;56411;52.964;10.540;2023-11-19T03:10:23;6.60;;;3.00;;
16101;SDS011;56411;52.964;10.540;2023-11-19T03:12:50;4.53;;;2.60;;
16101;SDS011;56411;52.964;10.540;2023-11-19T03:15:18;5.40;;;2.67;;
16101;SDS011;56411;52.964;10.540;2023-11-19T03:17:46;5.70;;;2.83;;
16101;SDS011;56411;52.964;10.540;2023-11-19T03:20:15;6.40;;;2.70;;
16101;SDS011;56411;52.964;10.540;2023-11-19T03:22:42;4.20;;;2.50;;
16101;SDS011;56411;52.964;10.540;2023-11-19T03:25:09;6.47;;;2.60;;
16101;SDS011;56411;52.964;10.540;2023-11-19T03:27:36;6.07;;;2.90;;
16101;SDS011;56411;52.964;10.540;2023-11-19T03:30:07;5.17;;;2.70;;
16101;SDS011;56411;52.964;10.540;2023-11-19T03:32:36;5.40;;;2.63;;
16101;SDS011;56411;52.964;10.540;2023-11-19T03:35:04;4.30;;;2.37;;
16101;SDS011;56411;52.964;10.540;2023-11-19T03:37:35;4.80;;;2.47;;
16101;SDS011;56411;52.964;10.540;2023-11-19T03:40:03;3.13;;;2.30;;
16101;SDS011;56411;52.964;10.540;2023-11-19T03:42:31;3.57;;;2.20;;
16101;SDS011;56411;52.964;10.540;2023-11-19T03:44:58;2.80;;;2.00;;
16101;SDS011;56411;52.964;10.540;2023-11-19T03:47:25;3.40;;;1.90;;
16101;SDS011;56411;52.964;10.540;2023-11-19T03:49:53;4.53;;;2.00;;
16101;SDS011;56411;52.964;10.540;2023-11-19T03:52:20;3.63;;;2.10;;
16101;SDS011;56411;52.964;10.540;2023-11-19T03:54:49;3.90;;;2.00;;
16101;SDS011;56411;52.964;10.540;2023-11-19T03:57:16;4.00;;;2.10;;
16101;SDS011;56411;52.964;10.540;2023-11-19T03:59:43;4.23;;;2.03;;
16101;SDS011;56411;52.964;10.540;2023-11-19T04:02:13;3.90;;;2.10;;
16101;SDS011;56411;52.964;10.540;2023-11-19T04:04:40;5.73;;;2.40;;
16101;SDS011;56411;52.964;10.540;2023-11-19T04:07:07;4.90;;;2.53;;
16101;SDS011;56411;52.964;10.540;2023-11-19T04:09:34;6.67;;;2.87;;
16101;SDS011;56411;52.964;10.540;2023-11-19T04:12:05;7.23;;;3.10;;
16101;SDS011;56411;52.964;10.540;2023-11-19T04:14:32;6.13;;;3.17;;
16101;SDS011;56411;52.964;10.540;2023-11-19T04:16:59;7.90;;;3.60;;
16101;SDS011;56411;52.964;10.540;2023-11-19T04:19:26;7.77;;;3.60;;
16101;SDS011;56411;52.964;10.540;2023-11-19T04:21:54;8.63;;;4.23;;
16101;SDS011;56411;52.964;10.540;2023-11-19T04:24:21;9.20;;;4.47;;
16101;SDS011;56411;52.964;10.540;2023-11-19T04:26:48;10.27;;;5.17;;
16101;SDS011;56411;52.964;10.540;2023-11-19T04:29:16;11.67;;;5.73;;
16101;SDS011;56411;52.964;10.540;2023-11-19T04:31:44;12.20;;;6.27;;
16101;SDS011;56411;52.964;10.540;2023-11-19T04:34:12;13.83;;;6.87;;
16101;SDS011;56411;52.964;10.540;2023-11-19T04:36:39;14.00;;;6.93;;
16101;SDS011;56411;52.964;10.540;2023-11-19T04:39:06;14.63;;;7.77;;
16101;SDS011;56411;52.964;10.540;2023-11-19T04:41:44;15.57;;;8.27;;
16101;SDS011;56411;52.964;10.540;2023-11-19T04:44:13;16.40;;;8.40;;
16101;SDS011;56411;52.964;10.540;2023-11-19T04:46:42;16.23;;;8.97;;
16101;SDS011;56411;52.964;10.540;2023-11-19T04:49:09;14.70;;;8.50;;
16101;SDS011;56411;52.964;10.540;2023-11-19T04:51:39;17.00;;;8.60;;
16101;SDS011;56411;52.964;10.540;2023-11-19T04:54:07;17.97;;;8.70;;
16101;SDS011;56411;52.964;10.540;2023-11-19T04:56:35;17.73;;;9.60;;
16101;SDS011;56411;52.964;10.540;2023-11-19T04:59:02;17.13;;;9.57;;
16101;SDS011;56411;52.964;10.540;2023-11-19T05:01:30;16.37;;;9.17;;
16101;SDS011;56411;52.964;10.540;2023-11-19T05:03:59;17.50;;;9.70;;
16101;SDS011;56411;52.964;10.540;2023-11-19T05:06:27;17.50;;;9.40;;
16101;SDS011;56411;52.964;10.540;2023-11-19T05:08:54;16.40;;;9.17;;
16101;SDS011;56411;52.964;10.540;2023-11-19T05:11:22;19.30;;;9.53;;
16101;SDS011;56411;52.964;10.540;2023-11-19T05:13:49;18.07;;;9.23;;
16101;SDS011;56411;52.964;10.540;2023-11-19T05:16:16;18.80;;;10.03;;
16101;SDS011;56411;52.964;10.540;2023-11-19T05:18:45;20.10;;;10.20;;
16101;SDS011;56411;52.964;10.540;2023-11-19T05:21:14;20.37;;;10.07;;
16101;SDS011;56411;52.964;10.540;2023-11-19T05:23:42;19.50;;;10.00;;
16101;SDS011;56411;52.964;10.540;2023-11-19T05:26:16;21.40;;;10.93;;
16101;SDS011;56411;52.964;10.540;2023-11-19T05:28:44;21.23;;;10.57;;
16101;SDS011;56411;52.964;10.540;2023-11-19T05:31:12;25.50;;;11.67;;
16101;SDS011;56411;52.964;10.540;2023-11-19T05:33:39;23.93;;;11.77;;
16101;SDS011;56411;52.964;10.540;2023-11-19T05:36:06;27.13;;;13.33;;
16101;SDS011;56411;52.964;10.540;2023-11-19T05:38:36;31.40;;;13.50;;
16101;SDS011;56411;52.964;10.540;2023-11-19T05:41:03;29.97;;;14.23;;
16101;SDS011;56411;52.964;10.540;2023-11-19T05:43:31;32.07;;;15.53;;
16101;SDS011;56411;52.964;10.540;2023-11-19T05:45:58;34.83;;;15.97;;
16101;SDS011;56411;52.964;10.540;2023-11-19T05:48:26;34.30;;;17.20;;
16101;SDS011;56411;52.964;10.540;2023-11-19T05:50:54;37.03;;;17.57;;
16101;SDS011;56411;52.964;10.540;2023-11-19T05:53:21;35.47;;;16.57;;
16101;SDS011;56411;52.964;10.540;2023-11-19T05:55:49;32.13;;;15.87;;
16101;SDS011;56411;52.964;10.540;2023-11-19T05:58:25;32.43;;;15.97;;
16101;SDS011;56411;52.964;10.540;2023-11-19T06:00:54;32.30;;;15.57;;
16101;SDS011;56411;52.964;10.540;2023-11-19T06:03:21;32.60;;;16.50;;
16101;SDS011;56411;52.964;10.540;2023-11-19T06:05:49;34.63;;;16.13;;
16101;SDS011;56411;52.964;10.540;2023-11-19T06:08:16;34.47;;;17.37;;
16101;SDS011;56411;52.964;10.540;2023-11-19T06:10:45;35.00;;;17.63;;
16101;SDS011;56411;52.964;10.540;2023-11-19T06:13:17;36.73;;;17.47;;
16101;SDS011;56411;52.964;10.540;2023-11-19T06:15:44;34.77;;;17.53;;
16101;SDS011;56411;52.964;10.540;2023-11-19T06:18:11;38.27;;;17.13;;
16101;SDS011;56411;52.964;10.540;2023-11-19T06:20:40;36.23;;;17.47;;
16101;SDS011;56411;52.964;10.540;2023-11-19T06:23:07;38.87;;;17.20;;
16101;SDS011;56411;52.964;10.540;2023-11-19T06:25:34;36.27;;;16.87;;
16101;SDS011;56411;52.964;10.540;2023-11-19T06:28:01;34.73;;;17.13;;
16101;SDS011;56411;52.964;10.540;2023-11-19T06:30:30;36.53;;;16.83;;
16101;SDS011;56411;52.964;10.540;2023-11-19T06:32:57;40.07;;;17.43;;
16101;SDS011;56411;52.964;10.540;2023-11-19T06:35:25;35.88;;;16.48;;
16101;SDS011;56411;52.964;10.540;2023-11-19T06:37:54;29.90;;;15.97;;
16101;SDS011;56411;52.964;10.540;2023-11-19T06:40:21;37.83;;;17.37;;
16101;SDS011;56411;52.964;10.540;2023-11-19T06:42:48;33.87;;;17.37;;
16101;SDS011;56411;52.964;10.540;2023-11-19T06:45:15;35.67;;;16.60;;
16101;SDS011;56411;52.964;10.540;2023-11-19T06:47:43;34.27;;;16.77;;
16101;SDS011;56411;52.964;10.540;2023-11-19T06:50:10;38.97;;;17.33;;
16101;SDS011;56411;52.964;10.540;2023-11-19T06:52:38;35.73;;;17.73;;
16101;SDS011;56411;52.964;10.540;2023-11-19T06:55:05;36.27;;;18.07;;
16101;SDS011;56411;52.964;10.540;2023-11-19T06:57:33;32.70;;;16.60;;
16101;SDS011;56411;52.964;10.540;2023-11-19T07:00:00;32.90;;;17.13;;
16101;SDS011;56411;52.964;10.540;2023-11-19T07:02:27;30.47;;;15.50;;
16101;SDS011;56411;52.964;10.540;2023-11-19T07:04:56;31.23;;;15.47;;
16101;SDS011;56411;52.964;10.540;2023-11-19T07:07:23;32.67;;;16.10;;
16101;SDS011;56411;52.964;10.540;2023-11-19T07:09:50;36.40;;;17.20;;
16101;SDS011;56411;52.964;10.540;2023-11-19T07:12:17;36.47;;;16.37;;
16101;SDS011;56411;52.964;10.540;2023-11-19T07:14:44;31.80;;;16.40;;
16101;SDS011;56411;52.964;10.540;2023-11-19T07:17:12;31.77;;;15.77;;
16101;SDS011;56411;52.964;10.540;2023-11-19T07:19:40;34.50;;;17.40;;
16101;SDS011;56411;52.964;10.540;2023-11-19T07:22:09;36.03;;;15.93;;
16101;SDS011;56411;52.964;10.540;2023-11-19T07:24:38;35.37;;;15.93;;
16101;SDS011;56411;52.964;10.540;2023-11-19T07:27:05;35.60;;;15.17;;
16101;SDS011;56411;52.964;10.540;2023-11-19T07:29:33;41.03;;;16.87;;
16101;SDS011;56411;52.964;10.540;2023-11-19T07:32:01;36.97;;;16.67;;
16101;SDS011;56411;52.964;10.540;2023-11-19T07:34:28;35.08;;;15.10;;
16101;SDS011;56411;52.964;10.540;2023-11-19T07:36:55;35.03;;;15.63;;
16101;SDS011;56411;52.964;10.540;2023-11-19T07:39:28;33.67;;;15.13;;
16101;SDS011;56411;52.964;10.540;2023-11-19T07:41:55;31.50;;;15.17;;
16101;SDS011;56411;52.964;10.540;2023-11-19T07:44:22;37.03;;;15.37;;
16101;SDS011;56411;52.964;10.540;2023-11-19T07:46:49;34.17;;;14.73;;
16101;SDS011;56411;52.964;10.540;2023-11-19T07:49:17;31.73;;;15.03;;
16101;SDS011;56411;52.964;10.540;2023-11-19T07:51:44;36.67;;;14.90;;
16101;SDS011;56411;52.964;10.540;2023-11-19T07:54:11;31.97;;;14.07;;
16101;SDS011;56411;52.964;10.540;2023-11-19T07:56:40;29.17;;;13.77;;
16101;SDS011;56411;52.964;10.540;2023-11-19T07:59:07;32.37;;;13.10;;
16101;SDS011;56411;52.964;10.540;2023-11-19T08:01:34;32.07;;;12.43;;
16101;SDS011;56411;52.964;10.540;2023-11-19T08:04:01;30.13;;;12.30;;
16101;SDS011;56411;52.964;10.540;2023-11-19T08:06:28;35.80;;;13.20;;
16101;SDS011;56411;52.964;10.540;2023-11-19T08:08:55;35.53;;;12.60;;
16101;SDS011;56411;52.964;10.540;2023-11-19T08:11:22;29.83;;;11.33;;
16101;SDS011;56411;52.964;10.540;2023-11-19T08:13:51;26.10;;;11.00;;
16101;SDS011;56411;52.964;10.540;2023-11-19T08:16:18;28.42;;;11.57;;
16101;SDS011;56411;52.964;10.540;2023-11-19T08:18:45;29.10;;;10.27;;
16101;SDS011;56411;52.964;10.540;2023-11-19T08:21:12;31.60;;;10.57;;
16101;SDS011;56411;52.964;10.540;2023-11-19T08:23:40;23.42;;;9.35;;
16101;SDS011;56411;52.964;10.540;2023-11-19T08:26:07;29.23;;;10.23;;
16101;SDS011;56411;52.964;10.540;2023-11-19T08:28:34;31.67;;;9.98;;
16101;SDS011;56411;52.964;10.540;2023-11-19T08:31:04;25.27;;;8.60;;
16101;SDS011;56411;52.964;10.540;2023-11-19T08:33:31;24.42;;;9.55;;
16101;SDS011;56411;52.964;10.540;2023-11-19T08:35:58;28.97;;;9.07;;
16101;SDS011;56411;52.964;10.540;2023-11-19T08:38:25;29.43;;;9.13;;
16101;SDS011;56411;52.964;10.540;2023-11-19T08:40:52;28.07;;;9.07;;
16101;SDS011;56411;52.964;10.540;2023-11-19T08:43:24;28.30;;;9.07;;
16101;SDS011;56411;52.964;10.540;2023-11-19T08:45:51;24.75;;;8.25;;
16101;SDS011;56411;52.964;10.540;2023-11-19T08:48:20;27.00;;;8.67;;
16101;SDS011;56411;52.964;10.540;2023-11-19T08:50:47;25.80;;;7.43;;
16101;SDS011;56411;52.964;10.540;2023-11-19T08:53:14;24.42;;;7.85;;
16101;SDS011;56411;52.964;10.540;2023-11-19T08:55:42;25.50;;;6.77;;
16101;SDS011;56411;52.964;10.540;2023-11-19T08:58:09;22.07;;;7.03;;
16101;SDS011;56411;52.964;10.540;2023-11-19T09:00:36;26.98;;;8.20;;
16101;SDS011;56411;52.964;10.540;2023-11-19T09:03:07;24.45;;;7.95;;
16101;SDS011;56411;52.964;10.540;2023-11-19T09:05:35;27.75;;;6.68;;
16101;SDS011;56411;52.964;10.540;2023-11-19T09:08:03;24.20;;;6.88;;
16101;SDS011;56411;52.964;10.540;2023-11-19T09:10:31;23.48;;;6.75;;
16101;SDS011;56411;52.964;10.540;2023-11-19T09:12:58;23.77;;;7.00;;
16101;SDS011;56411;52.964;10.540;2023-11-19T09:15:25;20.55;;;5.28;;
16101;SDS011;56411;52.964;10.540;2023-11-19T09:17:53;18.73;;;5.13;;
16101;SDS011;56411;52.964;10.540;2023-11-19T09:20:19;21.90;;;5.15;;
16101;SDS011;56411;52.964;10.540;2023-11-19T09:22:48;19.43;;;4.60;;
16101;SDS011;56411;52.964;10.540;2023-11-19T09:25:16;22.97;;;5.30;;
16101;SDS011;56411;52.964;10.540;2023-11-19T09:27:43;20.77;;;4.57;;
16101;SDS011;56411;52.964;10.540;2023-11-19T09:30:10;19.97;;;5.13;;
16101;SDS011;56411;52.964;10.540;2023-11-19T09:32:41;17.48;;;5.57;;
16101;SDS011;56411;52.964;10.540;2023-11-19T09:35:08;27.47;;;7.13;;
16101;SDS011;56411;52.964;10.540;2023-11-19T09:37:38;26.15;;;6.32;;
16101;SDS011;56411;52.964;10.540;2023-11-19T09:40:07;31.73;;;7.50;;
16101;SDS011;56411;52.964;10.540;2023-11-19T09:42:38;29.77;;;7.70;;
16101;SDS011;56411;52.964;10.540;2023-11-19T09:45:12;30.38;;;8.32;;
16101;SDS011;56411;52.964;10.540;2023-11-19T09:47:42;34.00;;;8.10;;
16101;SDS011;56411;52.964;10.540;2023-11-19T09:50:11;30.50;;;7.47;;
16101;SDS011;56411;52.964;10.540;2023-11-19T09:52:42;28.13;;;7.90;;
16101;SDS011;56411;52.964;10.540;2023-11-19T09:55:12;29.07;;;7.57;;
16101;SDS011;56411;52.964;10.540;2023-11-19T09:57:40;29.67;;;6.97;;
16101;SDS011;56411;52.964;10.540;2023-11-19T10:00:11;30.17;;;7.17;;
16101;SDS011;56411;52.964;10.540;2023-11-19T10:02:42;28.63;;;6.65;;
16101;SDS011;56411;52.964;10.540;2023-11-19T10:05:11;22.33;;;5.33;;
16101;SDS011;56411;52.964;10.540;2023-11-19T10:07:39;23.95;;;5.78;;
16101;SDS011;56411;52.964;10.540;2023-11-19T10:10:08;17.33;;;4.53;;
16101;SDS011;56411;52.964;10.540;2023-11-19T10:12:40;19.63;;;4.80;;
16101;SDS011;56411;52.964;10.540;2023-11-19T10:15:08;25.13;;;6.20;;
16101;SDS011;56411;52.964;10.540;2023-11-19T10:17:44;21.03;;;5.40;;
16101;SDS011;56411;52.964;10.540;2023-11-19T10:20:11;18.92;;;5.03;;
16101;SDS011;56411;52.964;10.540;2023-11-19T10:22:38;26.15;;;5.35;;
16101;SDS011;56411;52.964;10.540;2023-11-19T10:25:05;18.80;;;4.30;;
16101;SDS011;56411;52.964;10.540;2023-11-19T10:27:50;22.98;;;5.28;;
16101;SDS011;56411;52.964;10.540;2023-11-19T10:30:17;20.00;;;3.85;;
16101;SDS011;56411;52.964;10.540;2023-11-19T10:32:46;18.13;;;3.88;;
16101;SDS011;56411;52.964;10.540;2023-11-19T10:35:28;21.83;;;4.72;;
16101;SDS011;56411;52.964;10.540;2023-11-19T10:37:55;24.27;;;4.55;;
16101;SDS011;56411;52.964;10.540;2023-11-19T10:40:26;18.75;;;4.43;;
16101;SDS011;56411;52.964;10.540;2023-11-19T10:43:06;24.67;;;5.30;;
16101;SDS011;56411;52.964;10.540;2023-11-19T10:45:34;22.70;;;4.80;;
16101;SDS011;56411;52.964;10.540;2023-11-19T10:48:02;18.20;;;4.50;;
16101;SDS011;56411;52.964;10.540;2023-11-19T10:50:31;19.40;;;4.83;;
16101;SDS011;56411;52.964;10.540;2023-11-19T10:53:00;22.27;;;5.10;;
16101;SDS011;56411;52.964;10.540;2023-11-19T10:55:27;22.63;;;5.13;;
16101;SDS011;56411;52.964;10.540;2023-11-19T10:57:58;24.55;;;5.10;;
16101;SDS011;56411;52.964;10.540;2023-11-19T11:00:34;27.90;;;5.57;;
16101;SDS011;56411;52.964;10.540;2023-11-19T11:03:08;22.77;;;5.18;;
16101;SDS011;56411;52.964;10.540;2023-11-19T11:05:37;20.05;;;5.25;;
16101;SDS011;56411;52.964;10.540;2023-11-19T11:08:05;23.33;;;4.63;;
16101;SDS011;56411;52.964;10.540;2023-11-19T11:10:35;22.08;;;5.50;;
16101;SDS011;56411;52.964;10.540;2023-11-19T11:13:09;22.27;;;4.82;;
16101;SDS011;56411;52.964;10.540;2023-11-19T11:15:38;17.65;;;4.20;;
16101;SDS011;56411;52.964;10.540;2023-11-19T11:18:08;28.58;;;5.68;;
16101;SDS011;56411;52.964;10.540;2023-11-19T11:20:38;23.08;;;5.05;;
16101;SDS011;56411;52.964;10.540;2023-11-19T11:23:11;23.27;;;5.80;;
16101;SDS011;56411;52.964;10.540;2023-11-19T11:25:58;27.38;;;5.88;;
16101;SDS011;56411;52.964;10.540;2023-11-19T11:28:37;26.98;;;5.18;;
16101;SDS011;56411;52.964;10.540;2023-11-19T11:31:20;27.35;;;5.45;;
16101;SDS011;56411;52.964;10.540;2023-11-19T11:34:04;23.00;;;5.50;;
16101;SDS011;56411;52.964;10.540;2023-11-19T11:36:47;21.13;;;5.10;;
16101;SDS011;56411;52.964;10.540;2023-11-19T11:39:21;26.42;;;5.88;;
16101;SDS011;56411;52.964;10.540;2023-11-19T11:42:03;26.63;;;5.68;;
16101;SDS011;56411;52.964;10.540;2023-11-19T11:45:00;25.30;;;5.57;;
16101;SDS011;56411;52.964;10.540;2023-11-19T11:50:50;26.88;;;5.60;;
16101;SDS011;56411;52.964;10.540;2023-11-19T11:53:23;27.58;;;5.72;;
16101;SDS011;56411;52.964;10.540;2023-11-19T11:55:54;29.13;;;6.20;;
16101;SDS011;56411;52.964;10.540;2023-11-19T11:58:35;23.60;;;5.32;;
16101;SDS011;56411;52.964;10.540;2023-11-19T12:01:04;24.30;;;5.05;;
16101;SDS011;56411;52.964;10.540;2023-11-19T12:03:35;19.38;;;5.20;;
16101;SDS011;56411;52.964;10.540;2023-11-19T12:06:06;26.45;;;5.80;;
16101;SDS011;56411;52.964;10.540;2023-11-19T12:08:34;25.67;;;5.60;;
16101;SDS011;56411;52.964;10.540;2023-11-19T12:11:01;31.23;;;5.40;;
16101;SDS011;56411;52.964;10.540;2023-11-19T12:13:42;31.10;;;6.03;;
16101;SDS011;56411;52.964;10.540;2023-11-19T12:16:13;28.55;;;7.25;;
16101;SDS011;56411;52.964;10.540;2023-11-19T12:18:41;28.13;;;6.37;;
16101;SDS011;56411;52.964;10.540;2023-11-19T12:21:10;30.73;;;6.17;;
16101;SDS011;56411;52.964;10.540;2023-11-19T12:23:44;30.57;;;6.93;;
16101;SDS011;56411;52.964;10.540;2023-11-19T12:26:32;31.70;;;6.53;;
16101;SDS011;56411;52.964;10.540;2023-11-19T12:29:01;28.85;;;6.22;;
16101;SDS011;56411;52.964;10.540;2023-11-19T12:31:31;28.37;;;6.20;;
16101;SDS011;56411;52.964;10.540;2023-11-19T12:34:04;25.92;;;5.53;;
16101;SDS011;56411;52.964;10.540;2023-11-19T12:36:39;29.20;;;6.32;;
16101;SDS011;56411;52.964;10.540;2023-11-19T12:39:08;26.83;;;5.95;;
16101;SDS011;56411;52.964;10.540;2023-11-19T12:41:50;26.17;;;6.20;;
16101;SDS011;56411;52.964;10.540;2023-11-19T12:44:19;26.03;;;6.37;;
16101;SDS011;56411;52.964;10.540;2023-11-19T12:46:46;22.88;;;5.15;;
16101;SDS011;56411;52.964;10.540;2023-11-19T12:49:29;24.40;;;5.63;;
16101;SDS011;56411;52.964;10.540;2023-11-19T12:51:58;22.17;;;5.30;;
16101;SDS011;56411;52.964;10.540;2023-11-19T12:54:33;26.60;;;5.80;;
16101;SDS011;56411;52.964;10.540;2023-11-19T12:57:06;25.88;;;5.50;;
16101;SDS011;56411;52.964;10.540;2023-11-19T12:59:36;26.30;;;5.22;;
16101;SDS011;56411;52.964;10.540;2023-11-19T13:02:05;22.20;;;5.00;;
16101;SDS011;56411;52.964;10.540;2023-11-19T13:04:33;26.50;;;5.78;;
16101;SDS011;56411;52.964;10.540;2023-11-19T13:07:01;21.83;;;4.95;;
16101;SDS011;56411;52.964;10.540;2023-11-19T13:09:30;21.98;;;5.55;;
16101;SDS011;56411;52.964;10.540;2023-11-19T13:11:57;26.23;;;5.30;;
16101;SDS011;56411;52.964;10.540;2023-11-19T13:14:35;25.10;;;5.30;;
16101;SDS011;56411;52.964;10.540;2023-11-19T13:17:03;32.00;;;6.65;;
16101;SDS011;56411;52.964;10.540;2023-11-19T13:19:30;24.88;;;6.03;;
16101;SDS011;56411;52.964;10.540;2023-11-19T13:21:58;27.52;;;5.70;;
16101;SDS011;56411;52.964;10.540;2023-11-19T13:24:26;27.60;;;5.75;;
16101;SDS011;56411;52.964;10.540;2023-11-19T13:26:53;26.38;;;6.10;;
16101;SDS011;56411;52.964;10.540;2023-11-19T13:29:21;26.95;;;6.20;;
16101;SDS011;56411;52.964;10.540;2023-11-19T13:31:50;24.45;;;5.32;;
16101;SDS011;56411;52.964;10.540;2023-11-19T13:34:17;24.30;;;6.18;;
16101;SDS011;56411;52.964;10.540;2023-11-19T13:36:45;24.75;;;5.25;;
16101;SDS011;56411;52.964;10.540;2023-11-19T13:39:12;22.45;;;5.85;;
16101;SDS011;56411;52.964;10.540;2023-11-19T13:41:49;26.27;;;6.18;;
16101;SDS011;56411;52.964;10.540;2023-11-19T13:44:16;24.00;;;5.90;;
16101;SDS011;56411;52.964;10.540;2023-11-19T13:46:44;30.25;;;6.10;;
16101;SDS011;56411;52.964;10.540;2023-11-19T13:49:12;31.27;;;5.72;;
16101;SDS011;56411;52.964;10.540;2023-11-19T13:51:39;26.03;;;5.87;;
16101;SDS011;56411;52.964;10.540;2023-11-19T13:54:06;27.08;;;5.72;;
16101;SDS011;56411;52.964;10.540;2023-11-19T13:56:33;28.05;;;7.50;;
16101;SDS011;56411;52.964;10.540;2023-11-19T13:59:02;30.45;;;6.47;;
16101;SDS011;56411;52.964;10.540;2023-11-19T14:01:29;26.43;;;5.60;;
16101;SDS011;56411;52.964;10.540;2023-11-19T14:03:56;30.63;;;6.37;;
16101;SDS011;56411;52.964;10.540;2023-11-19T14:06:24;26.17;;;5.90;;
16101;SDS011;56411;52.964;10.540;2023-11-19T14:08:51;30.57;;;6.27;;
16101;SDS011;56411;52.964;10.540;2023-11-19T14:11:18;26.70;;;5.43;;
16101;SDS011;56411;52.964;10.540;2023-11-19T14:13:45;26.83;;;5.13;;
16101;SDS011;56411;52.964;10.540;2023-11-19T14:16:16;27.17;;;5.20;;
16101;SDS011;56411;52.964;10.540;2023-11-19T14:18:43;22.33;;;5.73;;
16101;SDS011;56411;52.964;10.540;2023-11-19T14:21:11;25.40;;;5.35;;
16101;SDS011;56411;52.964;10.540;2023-11-19T14:23:38;27.48;;;5.40;;
16101;SDS011;56411;52.964;10.540;2023-11-19T14:26:05;27.67;;;5.95;;
16101;SDS011;56411;52.964;10.540;2023-11-19T14:28:32;27.83;;;6.30;;
16101;SDS011;56411;52.964;10.540;2023-11-19T14:30:59;32.45;;;6.82;;
16101;SDS011;56411;52.964;10.540;2023-11-19T14:33:28;27.17;;;6.47;;
16101;SDS011;56411;52.964;10.540;2023-11-19T14:35:55;32.00;;;6.57;;